sensor_id;sensor_type;location;lat;lon;timestamp;pressure;altitude;pressure_sealevel;temperature;humidity
14232;BME280;7200;52.194;9.900;2023-02-23T00:01:18;99888.38;;;11.30;100.00
14232;BME280;7200;52.194;9.900;2023-02-23T00:03:46;99845.47;;;11.26;100.00
14232;BME280;7200;52.194;9.900;2023-02-23T00:06:13;99850.56;;;11.29;100.00
14232;BME280;7200;52.194;9.900;2023-02-23T00:08:39;99804.56;;;11.16;100.00
14232;BME280;7200;52.194;9.900;2023-02-23T00:11:09;99772.09;;;10.97;100.00
14232;BME280;7200;52.194;9.900;2023-02-23T00:13:37;99753.25;;;10.49;100.00
14232;BME280;7200;52.194;9.900;2023-02-23T00:16:07;99750.94;;;10.22;100.00
14232;BME280;7200;52.194;9.900;2023-02-23T00:18:33;99738.31;;;9.91;100.00
14232;BME280;7200;52.194;9.900;2023-02-23T00:21:10;99834.91;;;10.31;100.00
14232;BME280;7200;52.194;9.900;2023-02-23T00:23:39;99870.00;;;10.71;100.00
14232;BME280;7200;52.194;9.900;2023-02-23T00:26:05;99892.84;;;11.10;100.00
14232;BME280;7200;52.194;9.900;2023-02-23T00:28:30;99859.53;;;11.08;100.00
14232;BME280;7200;52.194;9.900;2023-02-23T00:30:55;99854.25;;;11.08;100.00
14232;BME280;7200;52.194;9.900;2023-02-23T00:33:20;99869.06;;;11.29;100.00
14232;BME280;7200;52.194;9.900;2023-02-23T00:35:46;99864.09;;;11.41;100.00
14232;BME280;7200;52.194;9.900;2023-02-23T00:38:11;99844.06;;;11.37;100.00
14232;BME280;7200;52.194;9.900;2023-02-23T00:40:38;99857.72;;;11.45;100.00
14232;BME280;7200;52.194;9.900;2023-02-23T00:43:05;99832.41;;;11.41;100.00
14232;BME280;7200;52.194;9.900;2023-02-23T00:45:30;99812.63;;;11.32;100.00
14232;BME280;7200;52.194;9.900;2023-02-23T00:47:55;99827.13;;;11.41;100.00
14232;BME280;7200;52.194;9.900;2023-02-23T00:50:20;99825.19;;;11.44;100.00
14232;BME280;7200;52.194;9.900;2023-02-23T00:52:46;99831.03;;;11.51;100.00
14232;BME280;7200;52.194;9.900;2023-02-23T00:55:12;99810.56;;;11.37;100.00
14232;BME280;7200;52.194;9.900;2023-02-23T00:57:39;99826.41;;;11.37;100.00
14232;BME280;7200;52.194;9.900;2023-02-23T01:00:07;99829.00;;;11.39;100.00
14232;BME280;7200;52.194;9.900;2023-02-23T01:02:48;99854.03;;;11.49;100.00
14232;BME280;7200;52.194;9.900;2023-02-23T01:05:14;99863.13;;;11.61;100.00
14232;BME280;7200;52.194;9.900;2023-02-23T01:07:40;99811.72;;;11.32;100.00
14232;BME280;7200;52.194;9.900;2023-02-23T01:10:07;99833.25;;;11.41;100.00
14232;BME280;7200;52.194;9.900;2023-02-23T01:12:50;99830.72;;;11.40;100.00
14232;BME280;7200;52.194;9.900;2023-02-23T01:15:16;99849.59;;;11.49;100.00
14232;BME280;7200;52.194;9.900;2023-02-23T01:17:42;99831.44;;;11.43;100.00
14232;BME280;7200;52.194;9.900;2023-02-23T01:20:11;99833.03;;;11.46;100.00
14232;BME280;7200;52.194;9.900;2023-02-23T01:22:43;99861.47;;;11.58;100.00
14232;BME280;7200;52.194;9.900;2023-02-23T01:25:08;99839.19;;;11.46;100.00
14232;BME280;7200;52.194;9.900;2023-02-23T01:27:34;99817.97;;;11.30;100.00
14232;BME280;7200;52.194;9.900;2023-02-23T01:29:59;99792.53;;;11.10;100.00
14232;BME280;7200;52.194;9.900;2023-02-23T01:32:25;99804.88;;;11.10;100.00
14232;BME280;7200;52.194;9.900;2023-02-23T01:34:50;99828.25;;;11.18;100.00
14232;BME280;7200;52.194;9.900;2023-02-23T01:37:15;99833.53;;;11.18;100.00
14232;BME280;7200;52.194;9.900;2023-02-23T01:39:41;99837.19;;;11.15;100.00
14232;BME280;7200;52.194;9.900;2023-02-23T01:42:11;99835.53;;;11.13;100.00
14232;BME280;7200;52.194;9.900;2023-02-23T01:47:04;99876.06;;;11.30;100.00
14232;BME280;7200;52.194;9.900;2023-02-23T01:49:31;99841.31;;;11.21;100.00
14232;BME280;7200;52.194;9.900;2023-02-23T01:52:03;99822.50;;;11.09;100.00
14232;BME280;7200;52.194;9.900;2023-02-23T01:54:38;99844.19;;;11.16;100.00
14232;BME280;7200;52.194;9.900;2023-02-23T01:57:05;99829.56;;;11.09;100.00
14232;BME280;7200;52.194;9.900;2023-02-23T01:59:40;99819.53;;;10.98;100.00
14232;BME280;7200;52.194;9.900;2023-02-23T02:02:07;99844.63;;;11.07;100.00
14232;BME280;7200;52.194;9.900;2023-02-23T02:04:37;99811.47;;;10.82;100.00
14232;BME280;7200;52.194;9.900;2023-02-23T02:07:13;99804.66;;;10.59;100.00
14232;BME280;7200;52.194;9.900;2023-02-23T02:09:41;99864.53;;;10.76;100.00
14232;BME280;7200;52.194;9.900;2023-02-23T02:12:27;99869.41;;;10.85;100.00
14232;BME280;7200;52.194;9.900;2023-02-23T02:14:53;99869.34;;;10.87;100.00
14232;BME280;7200;52.194;9.900;2023-02-23T02:25:44;99862.69;;;10.97;100.00
14232;BME280;7200;52.194;9.900;2023-02-23T02:28:41;99881.88;;;11.01;100.00
14232;BME280;7200;52.194;9.900;2023-02-23T02:39:14;99896.56;;;11.06;100.00
14232;BME280;7200;52.194;9.900;2023-02-23T02:41:53;99904.00;;;11.17;100.00
14232;BME280;7200;52.194;9.900;2023-02-23T02:44:29;99903.25;;;11.33;100.00
14232;BME280;7200;52.194;9.900;2023-02-23T02:47:15;99865.59;;;11.10;100.00
14232;BME280;7200;52.194;9.900;2023-02-23T02:49:57;99837.94;;;10.81;100.00
14232;BME280;7200;52.194;9.900;2023-02-23T02:54:56;99846.00;;;10.59;100.00
14232;BME280;7200;52.194;9.900;2023-02-23T02:57:26;99842.41;;;10.41;100.00
14232;BME280;7200;52.194;9.900;2023-02-23T02:59:52;99864.28;;;10.43;100.00
14232;BME280;7200;52.194;9.900;2023-02-23T03:02:38;99846.72;;;10.23;100.00
14232;BME280;7200;52.194;9.900;2023-02-23T03:05:25;99850.47;;;10.17;100.00
14232;BME280;7200;52.194;9.900;2023-02-23T03:11:22;99884.88;;;10.14;100.00
14232;BME280;7200;52.194;9.900;2023-02-23T03:14:42;99904.03;;;10.18;100.00
14232;BME280;7200;52.194;9.900;2023-02-23T03:18:14;99914.53;;;10.19;100.00
14232;BME280;7200;52.194;9.900;2023-02-23T03:21:04;99896.41;;;10.11;100.00
14232;BME280;7200;52.194;9.900;2023-02-23T03:24:02;99873.81;;;9.85;100.00
14232;BME280;7200;52.194;9.900;2023-02-23T03:27:05;99908.84;;;9.87;100.00
14232;BME280;7200;52.194;9.900;2023-02-23T03:30:03;99946.50;;;10.11;100.00
14232;BME280;7200;52.194;9.900;2023-02-23T03:32:52;99925.53;;;10.08;100.00
14232;BME280;7200;52.194;9.900;2023-02-23T03:35:51;99923.06;;;10.04;100.00
14232;BME280;7200;52.194;9.900;2023-02-23T03:38:51;99952.75;;;10.29;100.00
14232;BME280;7200;52.194;9.900;2023-02-23T03:41:37;99936.13;;;10.27;100.00
14232;BME280;7200;52.194;9.900;2023-02-23T03:44:32;99927.84;;;10.16;100.00
14232;BME280;7200;52.194;9.900;2023-02-23T03:47:21;99948.00;;;10.38;100.00
14232;BME280;7200;52.194;9.900;2023-02-23T03:50:11;99940.50;;;10.28;100.00
14232;BME280;7200;52.194;9.900;2023-02-23T03:52:59;99959.91;;;10.48;100.00
14232;BME280;7200;52.194;9.900;2023-02-23T03:55:49;99954.75;;;10.45;100.00
14232;BME280;7200;52.194;9.900;2023-02-23T03:58:38;99902.97;;;10.22;100.00
14232;BME280;7200;52.194;9.900;2023-02-23T04:01:25;99920.31;;;10.27;100.00
14232;BME280;7200;52.194;9.900;2023-02-23T04:04:10;99912.06;;;10.14;100.00
14232;BME280;7200;52.194;9.900;2023-02-23T04:06:57;99928.56;;;10.20;100.00
14232;BME280;7200;52.194;9.900;2023-02-23T04:09:42;99904.63;;;10.04;100.00
14232;BME280;7200;52.194;9.900;2023-02-23T04:12:33;99916.44;;;10.16;100.00
14232;BME280;7200;52.194;9.900;2023-02-23T04:15:29;99896.06;;;9.78;100.00
14232;BME280;7200;52.194;9.900;2023-02-23T04:17:56;99944.09;;;10.05;100.00
14232;BME280;7200;52.194;9.900;2023-02-23T04:20:21;99877.22;;;9.67;100.00
14232;BME280;7200;52.194;9.900;2023-02-23T04:22:47;99899.00;;;9.70;100.00
14232;BME280;7200;52.194;9.900;2023-02-23T04:25:13;99906.19;;;9.67;100.00
14232;BME280;7200;52.194;9.900;2023-02-23T04:27:39;99940.00;;;9.78;100.00
14232;BME280;7200;52.194;9.900;2023-02-23T04:30:05;99920.47;;;9.61;100.00
14232;BME280;7200;52.194;9.900;2023-02-23T04:32:31;99940.78;;;9.58;100.00
14232;BME280;7200;52.194;9.900;2023-02-23T04:34:56;99971.47;;;9.81;100.00
14232;BME280;7200;52.194;9.900;2023-02-23T04:37:21;99973.84;;;9.87;100.00
14232;BME280;7200;52.194;9.900;2023-02-23T04:39:47;99974.25;;;9.98;100.00
14232;BME280;7200;52.194;9.900;2023-02-23T04:42:17;99971.34;;;10.06;100.00
14232;BME280;7200;52.194;9.900;2023-02-23T04:44:43;99935.13;;;9.89;100.00
14232;BME280;7200;52.194;9.900;2023-02-23T04:47:09;99927.66;;;9.78;100.00
14232;BME280;7200;52.194;9.900;2023-02-23T04:49:34;99893.69;;;9.50;100.00
14232;BME280;7200;52.194;9.900;2023-02-23T04:52:00;99902.09;;;9.38;100.00
14232;BME280;7200;52.194;9.900;2023-02-23T04:54:25;99919.13;;;9.29;100.00
14232;BME280;7200;52.194;9.900;2023-02-23T04:56:50;99932.38;;;9.26;100.00
14232;BME280;7200;52.194;9.900;2023-02-23T04:59:16;99934.22;;;9.24;100.00
14232;BME280;7200;52.194;9.900;2023-02-23T05:01:42;99952.94;;;9.16;100.00
14232;BME280;7200;52.194;9.900;2023-02-23T05:04:07;99978.63;;;9.33;100.00
14232;BME280;7200;52.194;9.900;2023-02-23T05:06:33;99977.78;;;9.32;100.00
14232;BME280;7200;52.194;9.900;2023-02-23T05:08:58;100001.78;;;9.47;100.00
14232;BME280;7200;52.194;9.900;2023-02-23T05:11:23;100004.59;;;9.64;100.00
14232;BME280;7200;52.194;9.900;2023-02-23T05:13:50;100008.34;;;9.81;100.00
14232;BME280;7200;52.194;9.900;2023-02-23T05:16:16;99996.91;;;9.82;100.00
14232;BME280;7200;52.194;9.900;2023-02-23T05:18:42;99996.69;;;9.86;100.00
14232;BME280;7200;52.194;9.900;2023-02-23T05:21:07;99952.22;;;9.57;100.00
14232;BME280;7200;52.194;9.900;2023-02-23T05:23:36;99956.91;;;9.50;100.00
14232;BME280;7200;52.194;9.900;2023-02-23T05:26:08;99929.00;;;9.22;100.00
14232;BME280;7200;52.194;9.900;2023-02-23T05:28:35;99938.84;;;9.17;100.00
14232;BME280;7200;52.194;9.900;2023-02-23T05:31:01;99946.25;;;9.07;100.00
14232;BME280;7200;52.194;9.900;2023-02-23T05:33:28;99963.25;;;8.99;100.00
14232;BME280;7200;52.194;9.900;2023-02-23T05:35:53;99989.16;;;9.09;100.00
14232;BME280;7200;52.194;9.900;2023-02-23T05:38:18;100035.44;;;9.39;100.00
14232;BME280;7200;52.194;9.900;2023-02-23T05:40:44;100011.69;;;9.40;100.00
14232;BME280;7200;52.194;9.900;2023-02-23T05:43:09;100000.53;;;9.33;100.00
14232;BME280;7200;52.194;9.900;2023-02-23T05:45:39;99981.19;;;9.11;100.00
14232;BME280;7200;52.194;9.900;2023-02-23T05:48:04;100010.56;;;9.24;100.00
14232;BME280;7200;52.194;9.900;2023-02-23T05:50:30;100015.53;;;9.31;100.00
14232;BME280;7200;52.194;9.900;2023-02-23T05:52:55;100032.91;;;9.35;100.00
14232;BME280;7200;52.194;9.900;2023-02-23T05:55:20;100040.22;;;9.51;100.00
14232;BME280;7200;52.194;9.900;2023-02-23T05:57:45;100023.63;;;9.49;100.00
14232;BME280;7200;52.194;9.900;2023-02-23T06:00:11;100043.31;;;9.62;100.00
14232;BME280;7200;52.194;9.900;2023-02-23T06:02:39;100043.34;;;9.84;100.00
14232;BME280;7200;52.194;9.900;2023-02-23T06:05:06;100036.72;;;9.96;100.00
14232;BME280;7200;52.194;9.900;2023-02-23T06:07:32;100014.28;;;9.86;100.00
14232;BME280;7200;52.194;9.900;2023-02-23T06:09:57;100028.38;;;10.07;100.00
14232;BME280;7200;52.194;9.900;2023-02-23T06:12:22;100026.84;;;10.23;100.00
14232;BME280;7200;52.194;9.900;2023-02-23T06:14:48;100015.28;;;10.26;100.00
14232;BME280;7200;52.194;9.900;2023-02-23T06:17:15;99969.81;;;10.00;100.00
14232;BME280;7200;52.194;9.900;2023-02-23T06:19:40;99943.59;;;9.75;100.00
14232;BME280;7200;52.194;9.900;2023-02-23T06:22:05;99949.53;;;9.80;100.00
14232;BME280;7200;52.194;9.900;2023-02-23T06:24:31;99928.47;;;9.58;100.00
14232;BME280;7200;52.194;9.900;2023-02-23T06:26:56;99956.81;;;9.73;100.00
14232;BME280;7200;52.194;9.900;2023-02-23T06:29:21;99944.91;;;9.65;100.00
14232;BME280;7200;52.194;9.900;2023-02-23T06:31:47;99952.00;;;9.63;100.00
14232;BME280;7200;52.194;9.900;2023-02-23T06:34:12;99977.84;;;9.75;100.00
14232;BME280;7200;52.194;9.900;2023-02-23T06:36:37;100006.41;;;9.86;100.00
14232;BME280;7200;52.194;9.900;2023-02-23T06:39:03;100017.63;;;9.91;100.00
14232;BME280;7200;52.194;9.900;2023-02-23T06:41:29;100014.34;;;9.84;100.00
14232;BME280;7200;52.194;9.900;2023-02-23T06:43:55;100031.91;;;9.85;100.00
14232;BME280;7200;52.194;9.900;2023-02-23T06:46:20;100031.94;;;9.84;100.00
14232;BME280;7200;52.194;9.900;2023-02-23T06:48:46;100040.66;;;9.86;100.00
14232;BME280;7200;52.194;9.900;2023-02-23T06:51:11;100059.47;;;9.99;100.00
14232;BME280;7200;52.194;9.900;2023-02-23T06:53:36;100065.59;;;9.99;100.00
14232;BME280;7200;52.194;9.900;2023-02-23T06:56:02;100055.84;;;10.01;100.00
14232;BME280;7200;52.194;9.900;2023-02-23T06:58:28;100091.22;;;10.18;100.00
14232;BME280;7200;52.194;9.900;2023-02-23T07:00:54;100074.41;;;10.20;100.00
14232;BME280;7200;52.194;9.900;2023-02-23T07:03:21;100063.25;;;10.13;100.00
14232;BME280;7200;52.194;9.900;2023-02-23T07:05:46;100066.91;;;10.09;100.00
14232;BME280;7200;52.194;9.900;2023-02-23T07:08:12;100047.19;;;9.98;100.00
14232;BME280;7200;52.194;9.900;2023-02-23T07:10:37;100081.47;;;10.20;100.00
14232;BME280;7200;52.194;9.900;2023-02-23T07:13:02;100080.66;;;10.18;100.00
14232;BME280;7200;52.194;9.900;2023-02-23T07:15:28;100069.81;;;10.25;100.00
14232;BME280;7200;52.194;9.900;2023-02-23T07:17:53;100077.78;;;10.24;100.00
14232;BME280;7200;52.194;9.900;2023-02-23T07:20:19;100099.38;;;10.33;100.00
14232;BME280;7200;52.194;9.900;2023-02-23T07:22:45;100081.91;;;10.31;100.00
14232;BME280;7200;52.194;9.900;2023-02-23T07:25:10;100065.69;;;10.18;100.00
14232;BME280;7200;52.194;9.900;2023-02-23T07:27:36;100065.03;;;10.13;100.00
14232;BME280;7200;52.194;9.900;2023-02-23T07:30:01;100062.47;;;10.11;100.00
14232;BME280;7200;52.194;9.900;2023-02-23T07:32:27;100088.06;;;10.30;100.00
14232;BME280;7200;52.194;9.900;2023-02-23T07:34:53;100073.06;;;10.32;100.00
14232;BME280;7200;52.194;9.900;2023-02-23T07:37:18;100083.38;;;10.38;100.00
14232;BME280;7200;52.194;9.900;2023-02-23T07:39:43;100080.13;;;10.31;100.00
14232;BME280;7200;52.194;9.900;2023-02-23T07:42:09;100091.25;;;10.40;100.00
14232;BME280;7200;52.194;9.900;2023-02-23T07:44:34;100074.41;;;10.20;100.00
14232;BME280;7200;52.194;9.900;2023-02-23T07:46:59;100101.97;;;10.35;100.00
14232;BME280;7200;52.194;9.900;2023-02-23T07:49:25;100091.75;;;10.26;100.00
14232;BME280;7200;52.194;9.900;2023-02-23T07:51:50;100117.63;;;10.40;100.00
14232;BME280;7200;52.194;9.900;2023-02-23T07:54:15;100079.56;;;10.23;100.00
14232;BME280;7200;52.194;9.900;2023-02-23T07:56:41;100119.25;;;10.42;100.00
14232;BME280;7200;52.194;9.900;2023-02-23T07:59:06;100121.84;;;10.44;100.00
14232;BME280;7200;52.194;9.900;2023-02-23T08:01:31;100123.09;;;10.56;100.00
14232;BME280;7200;52.194;9.900;2023-02-23T08:03:57;100095.53;;;10.42;100.00
14232;BME280;7200;52.194;9.900;2023-02-23T08:06:22;100114.78;;;10.44;100.00
14232;BME280;7200;52.194;9.900;2023-02-23T08:08:47;100110.72;;;10.36;100.00
14232;BME280;7200;52.194;9.900;2023-02-23T08:11:13;100123.84;;;10.37;100.00
14232;BME280;7200;52.194;9.900;2023-02-23T08:13:39;100149.38;;;10.59;100.00
14232;BME280;7200;52.194;9.900;2023-02-23T08:16:05;100123.03;;;10.57;100.00
14232;BME280;7200;52.194;9.900;2023-02-23T08:18:30;100119.22;;;10.64;100.00
14232;BME280;7200;52.194;9.900;2023-02-23T08:21:00;100108.53;;;10.67;100.00
14232;BME280;7200;52.194;9.900;2023-02-23T08:23:28;100088.47;;;10.63;100.00
14232;BME280;7200;52.194;9.900;2023-02-23T08:25:54;100133.34;;;10.84;100.00
14232;BME280;7200;52.194;9.900;2023-02-23T08:28:19;100131.97;;;10.96;100.00
14232;BME280;7200;52.194;9.900;2023-02-23T08:30:45;100116.13;;;10.96;100.00
14232;BME280;7200;52.194;9.900;2023-02-23T08:33:10;100107.69;;;10.87;100.00
14232;BME280;7200;52.194;9.900;2023-02-23T08:35:35;100129.34;;;10.96;100.00
14232;BME280;7200;52.194;9.900;2023-02-23T08:38:01;100105.13;;;10.86;100.00
14232;BME280;7200;52.194;9.900;2023-02-23T08:40:26;100137.13;;;10.99;100.00
14232;BME280;7200;52.194;9.900;2023-02-23T08:42:51;100102.03;;;10.76;100.00
14232;BME280;7200;52.194;9.900;2023-02-23T08:45:18;100126.28;;;10.84;100.00
14232;BME280;7200;52.194;9.900;2023-02-23T08:47:43;100138.97;;;10.97;100.00
14232;BME280;7200;52.194;9.900;2023-02-23T08:50:09;100109.94;;;10.76;100.00
14232;BME280;7200;52.194;9.900;2023-02-23T08:52:36;100119.75;;;10.73;100.00
14232;BME280;7200;52.194;9.900;2023-02-23T08:55:02;100163.66;;;10.96;100.00
14232;BME280;7200;52.194;9.900;2023-02-23T08:57:27;100157.69;;;10.90;100.00
14232;BME280;7200;52.194;9.900;2023-02-23T08:59:53;100161.00;;;10.96;100.00
14232;BME280;7200;52.194;9.900;2023-02-23T09:02:18;100179.16;;;11.03;100.00
14232;BME280;7200;52.194;9.900;2023-02-23T09:04:45;100171.22;;;11.03;100.00
14232;BME280;7200;52.194;9.900;2023-02-23T09:07:15;100162.84;;;10.94;100.00
14232;BME280;7200;52.194;9.900;2023-02-23T09:09:40;100159.81;;;10.82;100.00
14232;BME280;7200;52.194;9.900;2023-02-23T09:12:06;100153.06;;;10.75;100.00
14232;BME280;7200;52.194;9.900;2023-02-23T09:14:31;100160.50;;;10.65;100.00
14232;BME280;7200;52.194;9.900;2023-02-23T09:16:57;100174.50;;;10.67;100.00
14232;BME280;7200;52.194;9.900;2023-02-23T09:19:22;100174.00;;;10.58;100.00
14232;BME280;7200;52.194;9.900;2023-02-23T09:21:47;100175.13;;;10.52;100.00
14232;BME280;7200;52.194;9.900;2023-02-23T09:24:12;100187.31;;;10.55;100.00
14232;BME280;7200;52.194;9.900;2023-02-23T09:26:38;100199.72;;;10.52;100.00
14232;BME280;7200;52.194;9.900;2023-02-23T09:29:06;100213.59;;;10.58;100.00
14232;BME280;7200;52.194;9.900;2023-02-23T09:31:32;100222.97;;;10.65;100.00
14232;BME280;7200;52.194;9.900;2023-02-23T09:33:58;100233.91;;;10.78;100.00
14232;BME280;7200;52.194;9.900;2023-02-23T09:36:28;100230.63;;;10.93;100.00
14232;BME280;7200;52.194;9.900;2023-02-23T09:38:54;100230.16;;;10.83;100.00
14232;BME280;7200;52.194;9.900;2023-02-23T09:41:28;100214.00;;;10.69;100.00
14232;BME280;7200;52.194;9.900;2023-02-23T09:44:14;100214.63;;;10.54;100.00
14232;BME280;7200;52.194;9.900;2023-02-23T09:49:17;100221.13;;;10.45;100.00
14232;BME280;7200;52.194;9.900;2023-02-23T09:51:47;100252.84;;;10.65;100.00
14232;BME280;7200;52.194;9.900;2023-02-23T09:54:15;100238.84;;;10.63;100.00
14232;BME280;7200;52.194;9.900;2023-02-23T09:56:49;100245.03;;;10.62;100.00
14232;BME280;7200;52.194;9.900;2023-02-23T09:59:17;100245.03;;;10.62;100.00
14232;BME280;7200;52.194;9.900;2023-02-23T10:04:28;100243.88;;;10.69;100.00
14232;BME280;7200;52.194;9.900;2023-02-23T10:07:03;100220.69;;;10.56;100.00
14232;BME280;7200;52.194;9.900;2023-02-23T10:17:28;100245.34;;;10.55;100.00
14232;BME280;7200;52.194;9.900;2023-02-23T10:20:18;100223.94;;;10.40;100.00
14232;BME280;7200;52.194;9.900;2023-02-23T10:22:46;100243.75;;;10.50;100.00
14232;BME280;7200;52.194;9.900;2023-02-23T10:25:15;100254.94;;;10.57;100.00
14232;BME280;7200;52.194;9.900;2023-02-23T10:27:45;100249.22;;;10.68;100.00
14232;BME280;7200;52.194;9.900;2023-02-23T10:30:16;100268.22;;;10.78;100.00
14232;BME280;7200;52.194;9.900;2023-02-23T10:35:18;100235.25;;;10.44;100.00
14232;BME280;7200;52.194;9.900;2023-02-23T10:37:45;100224.50;;;10.25;100.00
14232;BME280;7200;52.194;9.900;2023-02-23T10:40:16;100255.13;;;10.29;100.00
14232;BME280;7200;52.194;9.900;2023-02-23T10:42:41;100249.63;;;10.35;100.00
14232;BME280;7200;52.194;9.900;2023-02-23T10:45:15;100269.88;;;10.35;100.00
14232;BME280;7200;52.194;9.900;2023-02-23T10:47:50;100261.34;;;10.26;100.00
14232;BME280;7200;52.194;9.900;2023-02-23T10:50:17;100275.91;;;10.38;100.00
14232;BME280;7200;52.194;9.900;2023-02-23T10:52:45;100258.97;;;10.44;100.00
14232;BME280;7200;52.194;9.900;2023-02-23T10:55:24;100268.47;;;10.48;100.00
14232;BME280;7200;52.194;9.900;2023-02-23T10:58:10;100260.81;;;10.42;100.00
14232;BME280;7200;52.194;9.900;2023-02-23T11:00:49;100267.69;;;10.46;100.00
14232;BME280;7200;52.194;9.900;2023-02-23T11:03:24;100279.47;;;10.59;100.00
14232;BME280;7200;52.194;9.900;2023-02-23T11:05:51;100233.00;;;10.33;100.00
14232;BME280;7200;52.194;9.900;2023-02-23T11:08:19;100254.66;;;10.41;100.00
14232;BME280;7200;52.194;9.900;2023-02-23T11:13:32;100255.19;;;10.51;100.00
14232;BME280;7200;52.194;9.900;2023-02-23T11:16:07;100278.81;;;10.76;100.00
14232;BME280;7200;52.194;9.900;2023-02-23T11:18:35;100234.25;;;10.46;100.00
14232;BME280;7200;52.194;9.900;2023-02-23T11:21:00;100215.53;;;10.30;100.00
14232;BME280;7200;52.194;9.900;2023-02-23T11:23:29;100253.50;;;10.48;100.00
14232;BME280;7200;52.194;9.900;2023-02-23T11:26:01;100232.81;;;10.38;100.00
14232;BME280;7200;52.194;9.900;2023-02-23T11:28:32;100261.13;;;10.56;100.00
14232;BME280;7200;52.194;9.900;2023-02-23T11:31:08;100257.88;;;10.49;100.00
14232;BME280;7200;52.194;9.900;2023-02-23T11:33:38;100243.59;;;10.55;100.00
14232;BME280;7200;52.194;9.900;2023-02-23T11:36:25;100224.84;;;10.39;100.00
14232;BME280;7200;52.194;9.900;2023-02-23T11:41:42;100232.59;;;10.44;100.00
14232;BME280;7200;52.194;9.900;2023-02-23T11:44:18;100216.28;;;10.34;100.00
14232;BME280;7200;52.194;9.900;2023-02-23T11:46:44;100252.59;;;10.71;100.00
14232;BME280;7200;52.194;9.900;2023-02-23T11:49:17;100232.47;;;10.69;100.00
14232;BME280;7200;52.194;9.900;2023-02-23T11:51:49;100235.19;;;10.67;100.00
14232;BME280;7200;52.194;9.900;2023-02-23T11:54:30;100198.53;;;10.38;100.00
14232;BME280;7200;52.194;9.900;2023-02-23T11:56:57;100244.88;;;10.67;100.00
14232;BME280;7200;52.194;9.900;2023-02-23T11:59:38;100204.56;;;10.41;100.00
14232;BME280;7200;52.194;9.900;2023-02-23T12:02:25;100216.34;;;10.32;100.00
14232;BME280;7200;52.194;9.900;2023-02-23T12:05:13;100202.63;;;10.23;100.00
14232;BME280;7200;52.194;9.900;2023-02-23T12:07:55;100233.34;;;10.47;100.00
14232;BME280;7200;52.194;9.900;2023-02-23T12:16:53;100226.84;;;10.78;100.00
14232;BME280;7200;52.194;9.900;2023-02-23T12:19:00;100224.25;;;10.99;100.00
14232;BME280;7200;52.194;9.900;2023-02-23T12:21:54;100199.44;;;10.81;100.00
14232;BME280;7200;52.194;9.900;2023-02-23T12:27:13;100200.56;;;10.75;100.00
14232;BME280;7200;52.194;9.900;2023-02-23T12:38:19;100213.25;;;11.09;100.00
14232;BME280;7200;52.194;9.900;2023-02-23T12:40:51;100165.19;;;10.79;100.00
14232;BME280;7200;52.194;9.900;2023-02-23T12:43:36;100153.53;;;10.64;100.00
14232;BME280;7200;52.194;9.900;2023-02-23T12:46:10;100174.38;;;10.70;100.00
14232;BME280;7200;52.194;9.900;2023-02-23T12:48:54;100168.47;;;10.64;100.00
14232;BME280;7200;52.194;9.900;2023-02-23T12:51:43;100195.63;;;10.88;100.00
14232;BME280;7200;52.194;9.900;2023-02-23T12:54:13;100197.44;;;10.87;100.00
14232;BME280;7200;52.194;9.900;2023-02-23T13:02:32;100183.03;;;10.74;100.00
14232;BME280;7200;52.194;9.900;2023-02-23T13:05:15;100171.91;;;10.66;100.00
14232;BME280;7200;52.194;9.900;2023-02-23T13:10:31;100182.16;;;10.74;100.00
14232;BME280;7200;52.194;9.900;2023-02-23T13:13:22;100183.09;;;10.73;100.00
14232;BME280;7200;52.194;9.900;2023-02-23T13:21:32;100179.06;;;10.42;100.00
14232;BME280;7200;52.194;9.900;2023-02-23T13:24:17;100202.13;;;10.59;100.00
14232;BME280;7200;52.194;9.900;2023-02-23T13:26:54;100210.69;;;10.64;100.00
14232;BME280;7200;52.194;9.900;2023-02-23T13:29:39;100182.25;;;10.50;100.00
14232;BME280;7200;52.194;9.900;2023-02-23T13:32:10;100164.66;;;10.27;100.00
14232;BME280;7200;52.194;9.900;2023-02-23T13:34:51;100174.16;;;10.32;100.00
14232;BME280;7200;52.194;9.900;2023-02-23T13:37:23;100200.38;;;10.36;100.00
14232;BME280;7200;52.194;9.900;2023-02-23T13:40:07;100181.59;;;10.21;100.00
14232;BME280;7200;52.194;9.900;2023-02-23T13:45:34;100204.22;;;10.27;100.00
14232;BME280;7200;52.194;9.900;2023-02-23T13:53:42;100198.66;;;10.11;100.00
14232;BME280;7200;52.194;9.900;2023-02-23T13:56:21;100183.50;;;9.94;100.00
14232;BME280;7200;52.194;9.900;2023-02-23T13:58:51;100187.00;;;9.94;100.00
14232;BME280;7200;52.194;9.900;2023-02-23T14:01:25;100176.81;;;9.85;100.00
14232;BME280;7200;52.194;9.900;2023-02-23T14:03:55;100193.38;;;9.89;100.00
14232;BME280;7200;52.194;9.900;2023-02-23T14:06:24;100182.88;;;9.87;100.00
14232;BME280;7200;52.194;9.900;2023-02-23T14:08:54;100193.38;;;9.89;100.00
14232;BME280;7200;52.194;9.900;2023-02-23T14:11:51;100188.09;;;9.89;100.00
14232;BME280;7200;52.194;9.900;2023-02-23T14:22:35;100187.88;;;9.70;100.00
14232;BME280;7200;52.194;9.900;2023-02-23T14:28:03;100189.56;;;9.72;100.00
14232;BME280;7200;52.194;9.900;2023-02-23T14:31:02;100208.81;;;9.74;100.00
14232;BME280;7200;52.194;9.900;2023-02-23T14:41:23;100214.03;;;9.76;100.00
14232;BME280;7200;52.194;9.900;2023-02-23T14:44:04;100223.53;;;9.80;100.00
14232;BME280;7200;52.194;9.900;2023-02-23T14:46:30;100208.13;;;9.69;100.00
14232;BME280;7200;52.194;9.900;2023-02-23T14:48:59;100216.88;;;9.70;100.00
14232;BME280;7200;52.194;9.900;2023-02-23T14:51:44;100230.50;;;9.81;100.00
14232;BME280;7200;52.194;9.900;2023-02-23T14:54:30;100227.81;;;9.83;100.00
14232;BME280;7200;52.194;9.900;2023-02-23T14:56:57;100227.16;;;9.78;100.00
14232;BME280;7200;52.194;9.900;2023-02-23T14:59:26;100206.88;;;9.54;100.00
14232;BME280;7200;52.194;9.900;2023-02-23T15:01:53;100234.47;;;9.69;100.00
14232;BME280;7200;52.194;9.900;2023-02-23T15:04:23;100207.88;;;9.52;100.00